Time;durP1;ratioP1;P1;durP2;ratioP2;P2;SDS_P1;SDS_P2;PMS_P1;PMS_P2;Temp;Humidity;BMP_temperature;BMP_pressure;BME280_temperature;BME280_humidity;BME280_pressure;Samples;Min_cycle;Max_cycle;Signal;HPM_P1;HPM_P2
2021/06/07 00:01:59;;;;;;;19.80;9.35;;;;;;;16.96;75.27;101539.72;4333322;33;20055;-72
2021/06/07 00:04:26;;;;;;;16.60;10.63;;;;;;;17.00;75.02;101536.75;4337212;33;20102;-71
2021/06/07 00:06:52;;;;;;;15.55;9.25;;;;;;;16.87;75.17;101536.00;4335655;33;20377;-72
2021/06/07 00:09:19;;;;;;;22.80;10.80;;;;;;;16.87;74.98;101530.34;4335168;33;20062;-72
2021/06/07 00:11:51;;;;;;;15.05;9.57;;;;;;;16.82;75.46;101531.75;4334448;33;20047;-71
2021/06/07 00:14:19;;;;;;;18.00;10.10;;;;;;;16.76;75.97;101524.25;4335129;33;20047;-70
2021/06/07 00:16:46;;;;;;;17.52;10.82;;;;;;;16.75;75.99;101520.63;4334871;33;20353;-70
2021/06/07 00:19:16;;;;;;;16.60;10.65;;;;;;;16.70;75.85;101524.06;4336508;33;20069;-71
2021/06/07 00:21:42;;;;;;;20.05;11.02;;;;;;;16.71;76.03;101516.31;4334211;33;20074;-71
2021/06/07 00:24:09;;;;;;;19.12;11.25;;;;;;;16.57;76.37;101514.78;4336242;33;20490;-71
2021/06/07 00:26:35;;;;;;;16.92;10.88;;;;;;;16.50;76.12;101508.59;4336976;32;20051;-71
2021/06/07 00:29:03;;;;;;;19.27;10.05;;;;;;;16.54;75.63;101514.94;4329728;33;20536;-71
2021/06/07 00:31:29;;;;;;;15.00;9.23;;;;;;;16.58;75.60;101513.56;4335838;33;20471;-71
2021/06/07 00:33:54;;;;;;;19.37;10.60;;;;;;;16.55;75.62;101511.63;4336472;33;20055;-71
2021/06/07 00:36:22;;;;;;;16.23;10.05;;;;;;;16.55;75.70;101514.47;4336847;33;20086;-71
2021/06/07 00:38:49;;;;;;;16.02;9.85;;;;;;;16.49;75.58;101516.31;4335605;33;20048;-71
2021/06/07 00:41:17;;;;;;;16.42;9.80;;;;;;;16.44;76.25;101513.28;4321973;33;20576;-71
2021/06/07 00:43:43;;;;;;;18.67;10.55;;;;;;;16.45;75.98;101512.00;4337071;33;20066;-71
2021/06/07 00:46:09;;;;;;;14.82;10.15;;;;;;;16.50;75.34;101511.44;4336193;33;20102;-71
2021/06/07 00:48:35;;;;;;;20.05;10.68;;;;;;;16.48;75.20;101514.75;4337080;33;20078;-71
2021/06/07 00:51:07;;;;;;;16.92;10.60;;;;;;;16.48;75.10;101506.22;4333738;33;20055;-71
2021/06/07 00:53:33;;;;;;;17.70;10.38;;;;;;;16.51;75.10;101513.78;4336361;33;20494;-72
2021/06/07 00:56:03;;;;;;;16.67;9.35;;;;;;;16.40;75.65;101502.00;4335902;33;20069;-70
2021/06/07 00:58:33;;;;;;;14.13;10.25;;;;;;;16.39;75.62;101505.28;4336023;33;20105;-72
2021/06/07 01:01:00;;;;;;;17.25;9.80;;;;;;;16.42;75.31;101510.06;4333275;33;20079;-72
2021/06/07 01:03:28;;;;;;;17.35;10.40;;;;;;;16.34;75.37;101518.03;4336772;33;20055;-70
2021/06/07 01:05:54;;;;;;;13.43;9.30;;;;;;;16.23;75.69;101514.75;4334527;33;20063;-70
2021/06/07 01:08:22;;;;;;;16.17;9.00;;;;;;;16.18;75.71;101509.69;4334027;33;20047;-70
2021/06/07 01:10:48;;;;;;;19.37;10.05;;;;;;;16.18;75.26;101512.53;4334533;33;20066;-70
2021/06/07 01:13:14;;;;;;;15.98;10.55;;;;;;;16.16;75.61;101509.34;4335462;33;20417;-70
2021/06/07 01:15:41;;;;;;;20.20;9.93;;;;;;;16.18;75.72;101508.88;4335064;33;20036;-70
2021/06/07 01:18:08;;;;;;;15.82;9.55;;;;;;;16.29;75.51;101504.41;4336199;33;20044;-70
2021/06/07 01:20:34;;;;;;;16.62;9.98;;;;;;;16.29;75.57;101493.03;4336434;33;20475;-70
2021/06/07 01:23:00;;;;;;;17.00;10.50;;;;;;;16.36;75.26;101494.84;4335408;33;20090;-70
2021/06/07 01:25:29;;;;;;;15.98;10.27;;;;;;;16.39;75.22;101499.62;4339294;32;20083;-71
2021/06/07 01:27:56;;;;;;;16.62;10.20;;;;;;;16.40;74.59;101501.19;4337521;33;20105;-70
2021/06/07 01:30:26;;;;;;;20.42;10.63;;;;;;;16.35;74.45;101510.31;4338461;33;20436;-71
2021/06/07 01:32:52;;;;;;;16.15;9.57;;;;;;;16.39;73.94;101494.75;4336857;32;20079;-70
2021/06/07 01:35:18;;;;;;;15.18;9.63;;;;;;;16.50;73.61;101494.37;4338991;33;20491;-70
2021/06/07 01:37:47;;;;;;;11.68;8.73;;;;;;;16.39;74.07;101491.09;4337917;32;20522;-71
2021/06/07 01:40:17;;;;;;;17.77;9.18;;;;;;;16.34;73.88;101492.47;4336825;33;20114;-70
2021/06/07 01:42:43;;;;;;;16.55;9.60;;;;;;;16.29;74.21;101490.22;4336969;33;20036;-71
2021/06/07 01:45:11;;;;;;;15.73;9.40;;;;;;;16.17;74.51;101493.88;4337812;32;20101;-71
2021/06/07 01:47:38;;;;;;;16.33;10.07;;;;;;;16.18;74.35;101494.69;4339012;32;20186;-71
2021/06/07 01:50:06;;;;;;;12.40;8.48;;;;;;;16.06;74.81;101482.13;4336222;32;20125;-71
2021/06/07 01:52:33;;;;;;;15.43;10.02;;;;;;;16.08;74.78;101484.50;4338037;32;20043;-71
2021/06/07 01:54:59;;;;;;;16.67;9.70;;;;;;;16.02;74.68;101477.81;4338327;33;20093;-71
2021/06/07 01:57:25;;;;;;;16.20;10.43;;;;;;;15.97;74.83;101473.50;4337820;32;20475;-71
2021/06/07 01:59:51;;;;;;;18.00;9.80;;;;;;;15.95;75.00;101473.97;4337862;32;20047;-71
2021/06/07 02:02:17;;;;;;;19.65;10.50;;;;;;;15.95;75.03;101478.84;4336457;33;20052;-71
2021/06/07 02:04:43;;;;;;;20.12;10.13;;;;;;;15.89;75.35;101466.47;4336514;33;20102;-71
2021/06/07 02:07:09;;;;;;;17.00;9.88;;;;;;;15.86;75.47;101473.06;4337020;33;20047;-71
2021/06/07 02:09:39;;;;;;;18.70;10.20;;;;;;;15.90;75.42;101477.37;4337341;32;20055;-71
2021/06/07 02:12:06;;;;;;;23.27;9.63;;;;;;;15.85;75.69;101477.97;4336177;33;20419;-71
2021/06/07 02:14:32;;;;;;;18.75;10.07;;;;;;;15.82;75.55;101478.06;4338920;32;20477;-71
2021/06/07 02:16:58;;;;;;;14.10;8.57;;;;;;;15.70;75.80;101471.19;4339002;32;20039;-71
2021/06/07 02:19:24;;;;;;;15.38;9.85;;;;;;;15.75;75.67;101479.12;4337609;33;20146;-71
2021/06/07 02:21:49;;;;;;;19.58;10.38;;;;;;;15.81;75.30;101476.50;4336324;32;20060;-71
2021/06/07 02:24:15;;;;;;;15.77;9.43;;;;;;;15.74;75.72;101474.69;4338220;33;20078;-71
2021/06/07 02:26:41;;;;;;;15.38;9.75;;;;;;;15.75;75.99;101481.16;4339915;33;20052;-71
2021/06/07 02:29:10;;;;;;;15.32;9.38;;;;;;;15.73;76.15;101469.47;4338209;32;20526;-71
2021/06/07 02:31:37;;;;;;;15.25;9.65;;;;;;;15.75;76.16;101473.44;4334327;33;20086;-71
2021/06/07 02:34:06;;;;;;;16.20;9.88;;;;;;;15.69;76.62;101468.78;4338435;32;20074;-71
2021/06/07 02:36:35;;;;;;;15.13;9.63;;;;;;;15.79;75.72;101465.59;4336987;33;20429;-71
2021/06/07 02:39:06;;;;;;;16.27;10.45;;;;;;;15.67;76.28;101465.59;4335682;32;20055;-71
2021/06/07 02:41:32;;;;;;;13.62;9.38;;;;;;;15.61;76.55;101459.72;4337048;32;20039;-71
2021/06/07 02:43:57;;;;;;;12.30;8.82;;;;;;;15.61;76.26;101456.87;4338470;33;20078;-71
2021/06/07 02:46:23;;;;;;;15.23;8.68;;;;;;;15.56;76.30;101465.19;4337989;32;20625;-71
2021/06/07 02:48:49;;;;;;;12.50;9.10;;;;;;;15.53;76.01;101460.41;4336792;33;20511;-70
2021/06/07 02:51:15;;;;;;;15.23;8.85;;;;;;;15.53;75.81;101455.53;4336578;32;20055;-70
2021/06/07 02:53:41;;;;;;;17.77;10.65;;;;;;;15.46;76.23;101464.28;4336151;33;20060;-70
2021/06/07 02:56:07;;;;;;;20.20;9.77;;;;;;;15.45;76.16;101456.22;4338389;33;20044;-70
2021/06/07 02:58:34;;;;;;;14.85;9.73;;;;;;;15.45;75.90;101459.84;4337184;32;20089;-71
2021/06/07 03:01:04;;;;;;;14.00;8.55;;;;;;;15.42;76.05;101462.81;4334266;33;20040;-70
2021/06/07 03:03:30;;;;;;;14.48;7.85;;;;;;;15.42;76.24;101463.59;4336342;32;20068;-70
2021/06/07 03:05:58;;;;;;;16.05;8.70;;;;;;;15.41;76.12;101458.38;4335610;33;20483;-70
2021/06/07 03:08:29;;;;;;;12.65;7.87;;;;;;;15.36;76.13;101456.06;4335084;33;20074;-70
2021/06/07 03:10:58;;;;;;;12.07;8.25;;;;;;;15.37;76.15;101461.31;4336488;33;20052;-70
2021/06/07 03:13:25;;;;;;;15.10;8.45;;;;;;;15.42;75.75;101457.13;4336892;32;20445;-70
2021/06/07 03:15:53;;;;;;;12.68;8.32;;;;;;;15.48;75.44;101463.81;4336869;32;20784;-71
2021/06/07 03:18:20;;;;;;;12.05;8.27;;;;;;;15.44;74.81;101452.56;4336352;32;20535;-70
2021/06/07 03:20:47;;;;;;;14.80;7.93;;;;;;;15.38;75.14;101460.09;4336422;33;20416;-70
2021/06/07 03:23:16;;;;;;;11.68;7.32;;;;;;;15.34;75.52;101455.75;4336818;33;20073;-70
2021/06/07 03:25:46;;;;;;;13.30;7.93;;;;;;;15.33;75.48;101448.47;4336459;32;20563;-70
2021/06/07 03:28:13;;;;;;;12.13;7.90;;;;;;;15.42;74.97;101452.25;4337499;33;20047;-70
2021/06/07 03:30:39;;;;;;;16.12;8.27;;;;;;;15.46;74.72;101449.28;4335741;32;20052;-71
2021/06/07 03:33:07;;;;;;;11.68;7.20;;;;;;;15.57;74.70;101449.75;4335941;32;20055;-70
2021/06/07 03:35:33;;;;;;;13.55;7.25;;;;;;;15.70;74.02;101454.16;4338064;32;20044;-71
2021/06/07 03:37:59;;;;;;;10.85;7.55;;;;;;;15.76;73.61;101454.34;4337144;33;20055;-70
2021/06/07 03:40:28;;;;;;;14.48;8.60;;;;;;;15.88;73.69;101450.69;4336197;33;20491;-70
2021/06/07 03:42:55;;;;;;;16.67;9.65;;;;;;;15.98;73.45;101454.44;4336974;32;20059;-70
2021/06/07 03:45:21;;;;;;;12.80;8.77;;;;;;;16.06;73.12;101445.19;4337916;33;20075;-70
2021/06/07 03:47:48;;;;;;;13.35;8.70;;;;;;;16.15;72.99;101450.16;4335921;33;20483;-71
2021/06/07 03:50:17;;;;;;;17.65;8.75;;;;;;;16.23;72.50;101446.59;4333626;32;20458;-70
2021/06/07 03:52:44;;;;;;;13.50;8.23;;;;;;;16.29;72.41;101455.34;4335422;33;20474;-70
2021/06/07 03:55:12;;;;;;;14.48;8.90;;;;;;;16.29;72.10;101441.91;4337421;33;20085;-70
2021/06/07 03:57:38;;;;;;;16.35;9.30;;;;;;;16.45;71.38;101449.50;4335973;33;20055;-70
2021/06/07 04:00:06;;;;;;;18.52;10.30;;;;;;;16.45;71.41;101446.66;4334598;32;20110;-70
2021/06/07 04:02:32;;;;;;;16.58;8.43;;;;;;;16.57;71.36;101449.44;4335278;32;20068;-70
2021/06/07 04:04:58;;;;;;;18.23;8.88;;;;;;;16.64;71.29;101443.50;4336408;32;20113;-71
2021/06/07 04:07:24;;;;;;;14.65;9.45;;;;;;;16.71;70.63;101439.56;4337008;33;20070;-70
2021/06/07 04:09:50;;;;;;;14.35;8.98;;;;;;;16.79;70.54;101446.59;4333866;33;20087;-70
2021/06/07 04:12:16;;;;;;;15.50;9.95;;;;;;;16.86;70.32;101441.41;4336326;33;20078;-70
2021/06/07 04:14:42;;;;;;;16.83;9.93;;;;;;;16.95;70.03;101440.66;4337583;32;20077;-71
2021/06/07 04:17:08;;;;;;;16.20;10.07;;;;;;;16.99;69.41;101435.62;4336563;33;20560;-70
2021/06/07 04:19:35;;;;;;;15.18;8.82;;;;;;;17.05;69.51;101439.44;4334281;33;20079;-70
2021/06/07 04:22:01;;;;;;;13.85;8.93;;;;;;;17.13;69.41;101437.94;4336802;33;20128;-70
2021/06/07 04:24:27;;;;;;;15.40;9.18;;;;;;;17.01;68.95;101436.78;4336674;33;20060;-71
2021/06/07 04:26:53;;;;;;;16.05;9.43;;;;;;;17.13;68.73;101444.41;4335969;33;20047;-71
2021/06/07 04:29:18;;;;;;;14.02;8.93;;;;;;;17.07;69.15;101443.44;4336358;33;20081;-70
2021/06/07 04:31:44;;;;;;;12.75;8.10;;;;;;;17.06;69.51;101443.91;4335450;33;20055;-71
2021/06/07 04:34:10;;;;;;;12.27;7.87;;;;;;;17.12;68.40;101444.88;4336938;33;20051;-70
2021/06/07 04:36:36;;;;;;;11.88;7.30;;;;;;;17.26;68.05;101442.25;4335002;33;20534;-71
2021/06/07 04:39:04;;;;;;;9.68;6.68;;;;;;;17.29;68.08;101449.06;4335288;33;20496;-71
2021/06/07 04:41:30;;;;;;;11.98;7.03;;;;;;;17.30;68.07;101445.75;4335475;33;20689;-71
2021/06/07 04:43:56;;;;;;;13.00;7.70;;;;;;;17.27;67.79;101438.13;4335217;33;20539;-71
2021/06/07 04:46:22;;;;;;;17.35;7.95;;;;;;;17.28;67.98;101441.78;4335875;33;20051;-71
2021/06/07 04:48:49;;;;;;;11.88;7.35;;;;;;;17.36;68.04;101441.03;4336162;33;20063;-71
2021/06/07 04:51:14;;;;;;;15.35;7.65;;;;;;;17.46;67.86;101445.50;4334677;33;20138;-71
2021/06/07 04:53:40;;;;;;;12.20;7.57;;;;;;;17.58;67.78;101436.06;4336030;33;20482;-71
2021/06/07 04:56:08;;;;;;;14.77;8.07;;;;;;;17.64;67.39;101442.72;4335749;33;20505;-70
2021/06/07 04:58:34;;;;;;;14.00;8.48;;;;;;;17.71;67.24;101438.81;4338537;33;20122;-71
2021/06/07 05:01:05;;;;;;;14.45;9.35;;;;;;;17.78;66.96;101447.03;4337568;32;20097;-71
2021/06/07 05:03:31;;;;;;;15.50;9.18;;;;;;;17.89;66.95;101441.69;4331803;33;20102;-71
2021/06/07 05:05:59;;;;;;;16.70;9.40;;;;;;;17.94;66.95;101443.13;4338575;33;20396;-71
2021/06/07 05:08:26;;;;;;;15.10;9.70;;;;;;;17.95;66.75;101444.69;4336978;32;20070;-70
2021/06/07 05:10:54;;;;;;;14.98;9.90;;;;;;;18.01;67.19;101452.12;4338675;32;20067;-71
2021/06/07 05:13:20;;;;;;;13.98;9.18;;;;;;;18.10;66.27;101457.81;4337308;32;20052;-70
2021/06/07 05:15:46;;;;;;;16.17;10.13;;;;;;;18.28;65.88;101454.22;4340256;32;20543;-71
2021/06/07 05:18:12;;;;;;;17.17;9.55;;;;;;;18.43;65.42;101444.56;4338705;32;20090;-70
2021/06/07 05:20:39;;;;;;;17.15;10.18;;;;;;;18.54;65.33;101446.94;4338433;32;20433;-70
2021/06/07 05:23:05;;;;;;;15.82;9.90;;;;;;;18.59;64.05;101452.78;4336317;32;20074;-71
2021/06/07 05:25:33;;;;;;;15.90;9.60;;;;;;;18.67;64.14;101447.56;4339655;33;20044;-70
2021/06/07 05:28:01;;;;;;;16.00;9.90;;;;;;;18.75;64.09;101440.28;4337809;32;20110;-70
2021/06/07 05:30:29;;;;;;;17.52;10.13;;;;;;;18.81;63.43;101441.22;4337422;33;20059;-71
2021/06/07 05:32:55;;;;;;;14.13;9.68;;;;;;;18.67;63.68;101441.84;4337674;32;20051;-71
2021/06/07 05:35:24;;;;;;;21.40;10.38;;;;;;;18.67;64.00;101447.56;4338400;32;20074;-71
2021/06/07 05:37:50;;;;;;;16.45;9.77;;;;;;;18.65;64.25;101438.72;4337970;33;20047;-71
2021/06/07 05:40:18;;;;;;;24.17;10.57;;;;;;;18.55;64.43;101434.28;4337891;33;20396;-71
2021/06/07 05:42:45;;;;;;;18.77;10.15;;;;;;;18.45;65.12;101441.25;4339777;32;20071;-70
2021/06/07 05:45:13;;;;;;;17.60;10.85;;;;;;;18.42;65.03;101434.47;4340491;32;20123;-71
2021/06/07 05:47:39;;;;;;;16.62;9.80;;;;;;;18.35;65.08;101436.81;4340805;32;20048;-70
2021/06/07 05:50:08;;;;;;;17.73;10.85;;;;;;;18.38;65.37;101439.50;4337829;32;20044;-71
2021/06/07 05:52:34;;;;;;;24.55;11.82;;;;;;;18.46;65.11;101446.47;4336637;33;20381;-71
2021/06/07 05:55:01;;;;;;;20.95;12.48;;;;;;;18.40;65.18;101442.69;4336369;33;20044;-70
2021/06/07 05:57:26;;;;;;;19.87;11.40;;;;;;;18.48;65.15;101443.16;4337350;33;20110;-71
2021/06/07 05:59:52;;;;;;;15.95;10.95;;;;;;;18.40;65.22;101439.81;4336417;33;20502;-71
2021/06/07 06:02:18;;;;;;;22.05;12.32;;;;;;;18.61;64.40;101447.41;4338384;32;20158;-71
2021/06/07 06:04:43;;;;;;;21.95;12.25;;;;;;;18.69;64.05;101437.28;4339018;33;20376;-70
2021/06/07 06:07:09;;;;;;;22.92;12.73;;;;;;;18.84;63.93;101440.25;4339028;32;20036;-71
2021/06/07 06:09:36;;;;;;;24.48;12.13;;;;;;;19.06;62.85;101446.53;4335193;33;20441;-71
2021/06/07 06:12:02;;;;;;;26.52;12.13;;;;;;;19.26;62.20;101438.19;4338499;32;20372;-71
2021/06/07 06:14:28;;;;;;;19.37;12.63;;;;;;;19.46;61.55;101441.31;4338886;33;20472;-71
2021/06/07 06:16:55;;;;;;;19.70;11.57;;;;;;;19.56;61.21;101443.66;4339796;33;20071;-71
2021/06/07 06:19:23;;;;;;;19.85;10.75;;;;;;;19.72;60.72;101451.00;4339266;32;20036;-70
2021/06/07 06:21:49;;;;;;;20.67;11.88;;;;;;;19.89;60.15;101449.34;4339307;33;20094;-70
2021/06/07 06:24:15;;;;;;;20.35;11.48;;;;;;;20.01;59.31;101456.06;4339781;32;20087;-71
2021/06/07 06:26:42;;;;;;;25.23;11.82;;;;;;;20.04;59.14;101455.91;4339145;32;20054;-70
2021/06/07 06:29:09;;;;;;;19.77;11.15;;;;;;;20.10;58.40;101456.00;4337189;33;20044;-70
2021/06/07 06:31:35;;;;;;;25.17;12.25;;;;;;;20.28;58.25;101453.81;4334050;32;20496;-70
2021/06/07 06:34:02;;;;;;;20.55;10.65;;;;;;;20.29;57.69;101449.69;4337038;32;20105;-70
2021/06/07 06:36:29;;;;;;;21.08;11.10;;;;;;;20.24;56.35;101446.72;4333070;32;20070;-72
2021/06/07 06:38:55;;;;;;;20.35;11.20;;;;;;;20.17;56.77;101444.22;4324868;32;20087;-72
2021/06/07 06:41:21;;;;;;;21.58;11.57;;;;;;;20.08;57.26;101450.78;4332384;32;20055;-70
2021/06/07 06:43:46;;;;;;;18.10;11.12;;;;;;;20.14;57.44;101440.28;4333846;32;20066;-72
2021/06/07 06:46:14;;;;;;;18.98;11.95;;;;;;;20.19;57.28;101453.13;4330575;33;21107;-71
2021/06/07 06:48:39;;;;;;;25.12;11.30;;;;;;;20.14;57.25;101448.06;4328733;32;20071;-71
2021/06/07 06:51:05;;;;;;;18.50;10.73;;;;;;;20.04;57.69;101441.62;4332638;33;20062;-71
2021/06/07 06:53:31;;;;;;;23.75;12.43;;;;;;;20.20;57.01;101444.06;4334995;32;20388;-71
2021/06/07 06:55:57;;;;;;;20.30;10.95;;;;;;;20.29;56.82;101446.03;4332257;32;20040;-71
2021/06/07 06:58:26;;;;;;;21.73;11.88;;;;;;;20.33;56.27;101444.56;4331459;32;20086;-71
2021/06/07 07:00:52;;;;;;;22.37;11.50;;;;;;;20.40;56.04;101447.06;4322904;32;20080;-72
2021/06/07 07:03:19;;;;;;;21.85;11.60;;;;;;;20.44;55.66;101444.81;4325963;32;20078;-72
2021/06/07 07:05:47;;;;;;;25.60;12.27;;;;;;;20.54;56.14;101445.50;4328047;32;20417;-72
2021/06/07 07:08:14;;;;;;;22.42;11.32;;;;;;;20.64;56.05;101444.13;4326100;32;20483;-71
2021/06/07 07:10:41;;;;;;;24.33;12.02;;;;;;;20.65;56.09;101440.78;4324624;32;20062;-71
2021/06/07 07:13:07;;;;;;;22.02;12.68;;;;;;;20.61;55.92;101447.97;4327017;32;20062;-71
2021/06/07 07:15:34;;;;;;;20.60;12.82;;;;;;;20.75;55.94;101442.28;4328795;33;20612;-72
2021/06/07 07:17:59;;;;;;;23.23;13.77;;;;;;;20.62;55.78;101438.91;4330951;32;20048;-71
2021/06/07 07:20:25;;;;;;;17.90;11.85;;;;;;;20.55;55.79;101438.50;4325251;33;20101;-71
2021/06/07 07:22:53;;;;;;;28.83;13.07;;;;;;;20.66;55.84;101438.72;4329435;32;20083;-71
2021/06/07 07:25:19;;;;;;;23.90;14.32;;;;;;;20.78;56.10;101437.66;4329117;32;20094;-72
2021/06/07 07:27:45;;;;;;;21.00;12.18;;;;;;;20.95;55.30;101441.59;4323465;32;20210;-73
2021/06/07 07:30:15;;;;;;;25.27;13.52;;;;;;;20.73;55.87;101433.41;4328556;32;20052;-73
2021/06/07 07:32:43;;;;;;;22.70;12.55;;;;;;;20.55;56.92;101436.44;4329425;33;20402;-72
2021/06/07 07:35:09;;;;;;;26.33;13.73;;;;;;;20.81;56.19;101431.75;4327371;33;20420;-74
2021/06/07 07:37:36;;;;;;;27.55;14.00;;;;;;;21.00;55.36;101435.22;4327539;32;20079;-74
2021/06/07 07:40:05;;;;;;;24.70;14.68;;;;;;;21.22;55.07;101424.94;4328324;32;20052;-74
2021/06/07 07:42:31;;;;;;;21.37;12.77;;;;;;;21.48;54.29;101431.56;4329232;32;20083;-73
2021/06/07 07:44:56;;;;;;;21.70;13.57;;;;;;;21.56;53.98;101424.16;4329909;32;20370;-74
2021/06/07 07:47:22;;;;;;;23.10;13.38;;;;;;;21.45;53.83;101420.34;4330255;32;20090;-74
2021/06/07 07:49:48;;;;;;;32.10;14.40;;;;;;;21.64;53.63;101427.38;4328142;33;20403;-74
2021/06/07 07:52:14;;;;;;;33.00;16.10;;;;;;;21.81;53.00;101425.56;4328758;32;20432;-73
2021/06/07 07:54:40;;;;;;;28.08;14.93;;;;;;;22.19;52.52;101428.16;4327660;32;20057;-74
2021/06/07 07:57:06;;;;;;;26.42;13.20;;;;;;;22.57;51.27;101435.66;4330514;32;20091;-74
2021/06/07 07:59:34;;;;;;;24.65;14.32;;;;;;;22.91;50.24;101431.84;4326326;32;20518;-75
2021/06/07 08:02:00;;;;;;;25.12;13.75;;;;;;;23.06;49.55;101423.87;4337675;32;20543;-73
2021/06/07 08:04:26;;;;;;;23.75;13.45;;;;;;;23.17;49.49;101424.00;4329517;32;20100;-74
2021/06/07 08:06:53;;;;;;;21.30;11.82;;;;;;;23.52;49.08;101421.66;4329998;32;20035;-74
2021/06/07 08:09:19;;;;;;;23.75;12.93;;;;;;;23.64;48.85;101426.19;4329386;32;20110;-72
2021/06/07 08:11:44;;;;;;;21.65;12.95;;;;;;;23.75;48.52;101425.47;4326518;32;20082;-72
2021/06/07 08:14:11;;;;;;;20.77;12.37;;;;;;;23.72;48.29;101415.00;4328820;33;20378;-71
2021/06/07 08:16:37;;;;;;;24.60;12.45;;;;;;;23.92;47.92;101417.72;4331961;32;20166;-72
2021/06/07 08:19:03;;;;;;;22.15;12.43;;;;;;;23.88;48.07;101423.72;4329923;32;20075;-71
2021/06/07 08:21:29;;;;;;;21.75;12.43;;;;;;;24.01;47.94;101424.06;4325451;32;20344;-74
2021/06/07 08:23:54;;;;;;;21.70;12.65;;;;;;;24.20;47.29;101422.31;4329336;33;20035;-74
2021/06/07 08:26:21;;;;;;;20.95;12.27;;;;;;;24.02;47.86;101425.62;4329312;32;20078;-74
2021/06/07 08:28:47;;;;;;;19.87;11.70;;;;;;;24.28;47.29;101423.41;4327677;33;20122;-73
2021/06/07 08:31:13;;;;;;;19.65;11.77;;;;;;;24.23;47.38;101426.25;4328592;32;20438;-74
2021/06/07 08:33:39;;;;;;;24.33;11.57;;;;;;;24.18;47.15;101422.06;4329181;32;20205;-73
2021/06/07 08:36:06;;;;;;;30.50;11.45;;;;;;;24.32;47.18;101420.25;4327080;33;20149;-73
2021/06/07 08:38:32;;;;;;;18.75;10.98;;;;;;;24.61;46.83;101417.72;4324796;33;20106;-74
2021/06/07 08:40:58;;;;;;;23.42;11.48;;;;;;;24.84;46.42;101416.50;4328460;33;20039;-73
2021/06/07 08:43:25;;;;;;;20.23;10.43;;;;;;;24.65;46.15;101415.44;4329966;33;20079;-75
2021/06/07 08:45:51;;;;;;;19.52;11.00;;;;;;;24.70;46.57;101411.75;4330600;33;20067;-72
2021/06/07 08:48:18;;;;;;;15.80;9.15;;;;;;;24.87;46.83;101423.31;4328488;33;20547;-72
2021/06/07 08:50:45;;;;;;;15.35;10.32;;;;;;;25.22;46.84;101418.59;4328092;33;20083;-72
2021/06/07 08:53:12;;;;;;;14.70;10.30;;;;;;;25.49;45.92;101410.50;4329663;33;20075;-72
2021/06/07 08:55:39;;;;;;;14.32;10.00;;;;;;;25.69;45.62;101419.63;4329539;33;20079;-74
2021/06/07 08:58:05;;;;;;;18.85;10.93;;;;;;;25.94;45.15;101417.72;4327567;33;20094;-73
2021/06/07 09:00:36;;;;;;;18.15;11.73;;;;;;;25.91;45.16;101418.75;4324715;33;20355;-71
2021/06/07 09:03:13;;;;;;;20.62;11.05;;;;;;;26.12;44.80;101414.25;4330724;33;21513;-71
2021/06/07 09:05:40;;;;;;;18.20;11.95;;;;;;;26.53;44.11;101412.22;4329131;33;20346;-73
2021/06/07 09:10:48;;;;;;;17.05;10.55;;;;;;;27.73;42.27;101414.69;4419153;31;813933;-73
2021/06/07 09:13:16;;;;;;;18.00;11.50;;;;;;;27.73;42.27;101414.69;4432004;32;20041;-74
2021/06/07 09:15:47;;;;;;;15.05;10.45;;;;;;;27.26;42.69;101410.41;4430214;32;20129;-72
2021/06/07 09:18:16;;;;;;;21.42;10.15;;;;;;;27.16;43.09;101409.94;4428259;32;20431;-73
2021/06/07 09:20:43;;;;;;;17.90;10.45;;;;;;;27.13;43.19;101408.12;4424905;32;20073;-71
2021/06/07 09:23:14;;;;;;;18.77;11.90;;;;;;;27.26;42.47;101401.75;4430379;32;20131;-72
2021/06/07 09:25:44;;;;;;;18.42;10.25;;;;;;;27.20;42.91;101402.56;4429168;32;20579;-72
2021/06/07 09:28:20;;;;;;;14.57;9.60;;;;;;;27.52;42.71;101402.03;4427001;32;20073;-73
2021/06/07 09:31:08;;;;;;;15.38;9.57;;;;;;;27.96;41.79;101402.34;4427817;32;20063;-71
2021/06/07 09:33:37;;;;;;;16.05;10.13;;;;;;;27.77;42.03;101394.91;4426720;32;20519;-72
2021/06/07 09:39:23;;;;;;;15.30;8.80;;;;;;;28.10;41.47;101404.00;4417800;31;672452;-73
2021/06/07 09:50:06;;;;;;;14.65;9.10;;;;;;;29.19;39.71;101402.16;4431439;31;662582;-71
2021/06/07 09:52:45;;;;;;;16.15;8.80;;;;;;;29.19;39.71;101402.16;4448570;32;20115;-72
2021/06/07 10:08:44;;;;;;;11.98;5.03;;;;;;;29.05;38.28;101389.75;4407963;32;694778;-71
2021/06/07 10:11:33;;;;;;;7.35;4.62;;;;;;;29.05;38.28;101389.75;4433587;32;20531;-74
2021/06/07 10:17:01;;;;;;;8.23;5.15;;;;;;;29.08;38.10;101379.94;4416551;32;761764;-74
2021/06/07 10:22:05;;;;;;;9.02;4.35;;;;;;;29.62;37.21;101382.41;4433863;31;676569;-73
2021/06/07 10:24:32;;;;;;;12.25;4.60;;;;;;;29.62;37.21;101382.41;4451084;32;20079;-73
2021/06/07 10:27:00;;;;;;;6.85;4.50;;;;;;;29.36;37.04;101376.56;4450775;32;20100;-73
2021/06/07 10:29:35;;;;;;;7.95;4.45;;;;;;;29.65;36.40;101378.41;4447464;32;20156;-72
2021/06/07 10:34:51;;;;;;;6.32;3.12;;;;;;;30.60;35.11;101379.53;4413852;32;682555;-75
2021/06/07 10:37:18;;;;;;;4.60;2.55;;;;;;;30.60;35.11;101379.53;4418740;32;20068;-72
2021/06/07 10:39:45;;;;;;;2.95;2.10;;;;;;;29.97;35.61;101376.19;4419818;32;20138;-72
2021/06/07 10:42:17;;;;;;;5.37;2.35;;;;;;;29.63;34.98;101372.37;4416157;32;20096;-73
2021/06/07 10:47:21;;;;;;;4.43;2.10;;;;;;;31.75;31.91;101380.78;4414142;32;669323;-73
2021/06/07 10:49:57;;;;;;;4.22;1.90;;;;;;;31.75;31.91;101380.78;4415344;32;20049;-72
2021/06/07 10:52:28;;;;;;;1.83;1.10;;;;;;;31.42;31.07;101370.09;4426242;32;20077;-73
2021/06/07 10:55:06;;;;;;;4.45;2.65;;;;;;;31.27;29.87;101372.84;4422433;32;20101;-73
2021/06/07 10:57:36;;;;;;;3.03;2.05;;;;;;;31.67;30.67;101382.91;4424124;32;20210;-73
2021/06/07 11:02:45;;;;;;;3.17;1.70;;;;;;;32.39;28.87;101372.84;4411481;31;691538;-75
2021/06/07 11:13:19;;;;;;;4.15;2.05;;;;;;;32.53;27.45;101382.22;4420017;31;676737;-74
2021/06/07 11:23:45;;;;;;;2.45;1.55;;;;;;;31.04;28.78;101383.50;4434789;31;674115;-75
2021/06/07 11:26:12;;;;;;;3.75;1.65;;;;;;;30.38;28.83;101371.34;4444984;32;20463;-73
2021/06/07 11:33:56;;;;;;;3.05;2.70;;;;;;;30.48;31.52;101363.69;4438184;31;687200;-74
2021/06/07 11:36:45;;;;;;;3.70;2.30;;;;;;;30.48;31.52;101363.69;4448346;32;20163;-72
2021/06/07 11:39:15;;;;;;;5.43;2.55;;;;;;;31.20;30.05;101358.25;4442998;32;20157;-72
2021/06/07 11:44:39;;;;;;;6.57;3.20;;;;;;;33.43;27.09;101367.03;4377158;32;698217;-73
2021/06/07 11:47:05;;;;;;;3.40;2.72;;;;;;;33.43;27.09;101367.03;4389329;32;20042;-73
2021/06/07 11:49:30;;;;;;;5.15;2.92;;;;;;;33.62;26.34;101367.41;4391016;32;20046;-73
2021/06/07 11:52:02;;;;;;;3.30;2.75;;;;;;;33.47;26.64;101362.34;4390392;32;20074;-73
2021/06/07 11:57:07;;;;;;;3.53;2.35;;;;;;;33.95;26.36;101366.19;4394583;32;1387882;-73
2021/06/07 11:59:35;;;;;;;3.35;2.60;;;;;;;33.95;26.36;101366.19;4428649;32;20065;-73
2021/06/07 12:02:09;;;;;;;3.22;1.98;;;;;;;33.74;25.99;101365.63;4428054;32;20045;-75
2021/06/07 12:04:36;;;;;;;3.03;2.58;;;;;;;33.11;26.45;101353.00;4429611;32;20099;-76
2021/06/07 12:09:41;;;;;;;3.90;2.70;;;;;;;34.64;24.70;101347.78;4416196;31;863326;-76
2021/06/07 12:12:09;;;;;;;4.03;2.72;;;;;;;34.64;24.70;101347.78;4444442;32;20045;-72
2021/06/07 12:14:39;;;;;;;4.12;2.85;;;;;;;33.47;25.77;101344.06;4442557;32;20100;-72
2021/06/07 12:30:32;;;;;;;3.72;3.00;;;;;;;32.65;28.03;101334.63;4393089;32;1367783;-73
2021/06/07 12:32:58;;;;;;;5.57;3.03;;;;;;;32.65;28.03;101334.63;4432021;32;20519;-76
2021/06/07 12:35:27;;;;;;;4.55;2.70;;;;;;;31.43;29.15;101328.00;4432194;32;20080;-72
2021/06/07 12:40:41;;;;;;;4.00;2.35;;;;;;;31.03;29.83;101331.72;4420430;31;676687;-71
2021/06/07 12:53:40;;;;;;;3.20;2.03;;;;;;;31.78;28.51;101332.31;4427993;31;770534;-73